createdAt,value
2019-02-14T00:01:24.185Z,101795.52
2019-02-14T00:04:13.166Z,101797.05
2019-02-14T00:06:59.910Z,101805.27
2019-02-14T00:12:33.059Z,101811.06
2019-02-14T00:15:00.761Z,101818.34
2019-02-14T00:17:47.500Z,101816.31
2019-02-14T00:20:34.133Z,101806.41
2019-02-14T00:23:35.624Z,101802.98
2019-02-14T00:25:53.299Z,101802.98
2019-02-14T00:28:20.965Z,101801.26
2019-02-14T00:31:07.642Z,101798.28
2019-02-14T00:33:35.381Z,101798.28
2019-02-14T00:36:03.147Z,101809.23
2019-02-14T00:38:30.905Z,101809.23
2019-02-14T00:40:58.608Z,101803.66
2019-02-14T00:43:45.025Z,101807.66
2019-02-14T00:46:31.761Z,101810.81
2019-02-14T00:51:47.375Z,101807.13
2019-02-14T00:54:15.015Z,101807.13
2019-02-14T00:56:42.709Z,101816.86
2019-02-14T00:59:10.581Z,101824.80
2019-02-14T01:01:56.959Z,101821.37
2019-02-14T01:04:43.389Z,101817.94
2019-02-14T01:07:11.079Z,101807.50
2019-02-14T01:09:57.525Z,101808.82
2019-02-14T01:12:25.400Z,101803.95
2019-02-14T01:17:26.057Z,101809.13
2019-02-14T01:19:53.731Z,101817.86
2019-02-14T01:22:21.471Z,101817.86
2019-02-14T01:25:07.874Z,101814.00
2019-02-14T01:27:35.580Z,101814.00
2019-02-14T01:32:49.803Z,101806.78
2019-02-14T01:35:41.789Z,101807.33
2019-02-14T01:38:05.515Z,101807.33
2019-02-14T01:40:53.448Z,101811.34
2019-02-14T01:43:21.203Z,101811.43
2019-02-14T01:51:21.707Z,101800.45
2019-02-14T01:53:28.656Z,101802.25
2019-02-14T02:01:18.981Z,101806.67
2019-02-14T02:04:05.412Z,101806.67
2019-02-14T02:06:52.803Z,101809.77
2019-02-14T02:09:20.570Z,101809.77
2019-02-14T02:12:07.038Z,101806.35
2019-02-14T02:14:34.847Z,101809.11
2019-02-14T02:17:21.676Z,101807.14
2019-02-14T02:22:42.850Z,101809.34
2019-02-14T02:25:10.529Z,101807.56
2019-02-14T02:27:38.305Z,101813.68
2019-02-14T02:30:25.021Z,101812.38
2019-02-14T02:33:11.416Z,101811.55
2019-02-14T02:38:14.108Z,101804.17
2019-02-14T02:40:42.281Z,101801.08
2019-02-14T02:43:29.005Z,101801.95
2019-02-14T02:45:56.758Z,101801.95
2019-02-14T02:48:43.500Z,101807.13
2019-02-14T02:51:44.075Z,101804.48
2019-02-14T02:56:37.074Z,101806.66
2019-02-14T02:59:26.452Z,101807.07
2019-02-14T03:02:12.910Z,101803.11
2019-02-14T03:04:59.560Z,101804.48
2019-02-14T03:07:27.405Z,101804.48
2019-02-14T03:09:55.170Z,101796.01
2019-02-14T03:12:41.919Z,101794.30
2019-02-14T03:15:28.354Z,101797.83
2019-02-14T03:18:15.049Z,101803.55
2019-02-14T03:21:01.518Z,101799.21
2019-02-14T03:23:29.251Z,101799.21
2019-02-14T03:26:15.739Z,101805.48
2019-02-14T03:28:43.417Z,101805.48
2019-02-14T03:31:30.320Z,101807.69
2019-02-14T03:33:57.989Z,101807.69
2019-02-14T03:36:44.712Z,101813.36
2019-02-14T03:39:31.155Z,101816.09
2019-02-14T03:42:17.839Z,101814.38
2019-02-14T03:44:48.139Z,101814.38
2019-02-14T03:47:15.834Z,101810.98
2019-02-14T03:50:02.575Z,101812.77
2019-02-14T03:52:48.962Z,101809.25
2019-02-14T03:55:35.660Z,101807.03
2019-02-14T03:58:22.065Z,101817.95
2019-02-14T04:00:49.664Z,101820.21
2019-02-14T04:03:17.342Z,101821.06
2019-02-14T04:05:46.478Z,101814.55
2019-02-14T04:08:14.102Z,101810.20
2019-02-14T04:11:00.558Z,101813.23
2019-02-14T04:13:46.939Z,101810.56
2019-02-14T04:16:14.571Z,101810.56
2019-02-14T04:19:01.012Z,101811.92
2019-02-14T04:21:47.445Z,101813.73
2019-02-14T04:24:33.910Z,101811.22
2019-02-14T04:27:01.528Z,101813.06
2019-02-14T04:29:29.282Z,101813.06
2019-02-14T04:31:56.840Z,101816.63
2019-02-14T04:34:24.532Z,101816.68
2019-02-14T04:36:53.770Z,101816.68
2019-02-14T04:39:40.202Z,101822.54
2019-02-14T04:42:07.879Z,101822.54
2019-02-14T04:44:54.344Z,101820.02
2019-02-14T04:47:22.039Z,101827.03
2019-02-14T04:50:10.404Z,101824.50
2019-02-14T04:52:38.081Z,101824.50
2019-02-14T04:55:24.767Z,101832.41
2019-02-14T04:57:52.408Z,101832.41
2019-02-14T05:00:20.072Z,101834.59
2019-02-14T05:02:47.900Z,101833.72
2019-02-14T05:05:34.331Z,101829.36
2019-02-14T05:08:02.118Z,101829.36
2019-02-14T05:10:48.501Z,101831.56
2019-02-14T05:13:16.183Z,101831.56
2019-02-14T05:15:45.431Z,101832.87
2019-02-14T05:18:31.888Z,101840.73
2019-02-14T05:20:59.640Z,101840.73
2019-02-14T05:23:27.187Z,101837.69
2019-02-14T05:26:13.634Z,101848.62
2019-02-14T05:28:41.362Z,101848.62
2019-02-14T05:31:27.831Z,101866.53
2019-02-14T05:34:14.239Z,101857.79
2019-02-14T05:37:00.676Z,101865.19
2019-02-14T05:39:47.134Z,101853.86
2019-02-14T05:42:33.545Z,101858.64
2019-02-14T05:45:01.174Z,101857.33
2019-02-14T05:47:47.542Z,101857.33
2019-02-14T05:50:15.218Z,101854.71
2019-02-14T05:53:01.615Z,101865.11
2019-02-14T05:55:48.064Z,101870.77
2019-02-14T05:58:34.440Z,101875.16
2019-02-14T06:03:55.109Z,101884.37
2019-02-14T06:06:22.781Z,101884.37
2019-02-14T06:11:57.164Z,101894.92
2019-02-14T06:14:46.084Z,101893.22
2019-02-14T06:17:32.545Z,101894.11
2019-02-14T06:20:00.302Z,101899.77
2019-02-14T06:22:48.214Z,101896.72
2019-02-14T06:25:15.944Z,101896.72
2019-02-14T06:28:02.376Z,101891.94
2019-02-14T06:30:30.505Z,101892.40
2019-02-14T06:32:58.114Z,101891.94
2019-02-14T06:35:44.519Z,101891.94
2019-02-14T06:38:24.530Z,101892.80
2019-02-14T06:41:00.231Z,101892.80
2019-02-14T06:43:46.632Z,101898.88
2019-02-14T06:46:33.503Z,101908.05
2019-02-14T06:49:01.121Z,101908.05
2019-02-14T06:51:28.709Z,101916.33
2019-02-14T06:54:15.181Z,101923.34
2019-02-14T06:56:42.765Z,101925.53
2019-02-14T06:59:29.201Z,101921.17
2019-02-14T07:01:56.825Z,101921.17
2019-02-14T07:04:24.857Z,101914.63
2019-02-14T07:07:18.247Z,101918.98
2019-02-14T07:09:40.704Z,101911.98
2019-02-14T07:12:27.173Z,101918.98
2019-02-14T07:15:13.615Z,101918.49
2019-02-14T07:18:00.082Z,101925.01
2019-02-14T07:20:46.465Z,101937.65
2019-02-14T07:23:33.192Z,101928.87
2019-02-14T07:26:19.660Z,101930.61
2019-02-14T07:29:06.060Z,101930.61
2019-02-14T07:31:33.702Z,101941.05
2019-02-14T07:34:20.083Z,101935.81
2019-02-14T07:36:47.973Z,101935.81
2019-02-14T07:39:18.600Z,101948.48
2019-02-14T07:41:46.205Z,101947.14
2019-02-14T07:44:35.117Z,101949.77
2019-02-14T07:47:21.944Z,101944.45
2019-02-14T07:49:52.563Z,101944.45
2019-02-14T07:52:25.258Z,101954.01
2019-02-14T07:55:04.017Z,101955.67
2019-02-14T07:57:21.638Z,101949.50
2019-02-14T08:00:08.051Z,101949.88
2019-02-14T08:02:35.937Z,101949.88
2019-02-14T08:05:03.491Z,101932.13
2019-02-14T08:07:43.639Z,101926.77
2019-02-14T08:10:02.875Z,101927.50
2019-02-14T08:12:49.341Z,101927.70
2019-02-14T08:15:35.769Z,101934.25
2019-02-14T08:20:42.026Z,101937.45
2019-02-14T08:23:09.667Z,101932.80
2019-02-14T08:25:37.299Z,101932.80
2019-02-14T08:28:05.300Z,101932.47
2019-02-14T08:30:32.905Z,101932.47
2019-02-14T08:33:00.523Z,101930.92
2019-02-14T08:35:47.391Z,101917.59
2019-02-14T08:38:33.818Z,101923.47
2019-02-14T08:41:20.241Z,101921.23
2019-02-14T08:43:47.838Z,101919.27
2019-02-14T08:46:15.560Z,101910.41
2019-02-14T08:49:01.994Z,101910.41
2019-02-14T08:51:32.655Z,101889.72
2019-02-14T08:54:20.314Z,101889.72
2019-02-14T08:56:47.987Z,101896.07
2019-02-14T08:59:34.401Z,101895.65
2019-02-14T09:02:21.937Z,101898.83
2019-02-14T09:05:08.399Z,101898.16
2019-02-14T09:07:54.369Z,101898.16
2019-02-14T09:10:05.594Z,101895.63
2019-02-14T09:12:52.027Z,101883.62
2019-02-14T09:15:19.874Z,101883.62
2019-02-14T09:17:47.472Z,101885.87
2019-02-14T09:20:15.124Z,101898.11
2019-02-14T09:22:52.144Z,101898.11
2019-02-14T09:25:19.765Z,101904.52
2019-02-14T09:27:47.349Z,101900.63
2019-02-14T09:30:18.206Z,101900.63
2019-02-14T09:32:45.907Z,101906.99
2019-02-14T09:35:13.473Z,101895.48
2019-02-14T09:38:03.402Z,101900.64
2019-02-14T09:40:29.844Z,101900.64
2019-02-14T09:42:57.412Z,101900.36
2019-02-14T09:51:37.035Z,101897.70
2019-02-14T09:54:23.444Z,101886.63
2019-02-14T09:57:13.267Z,101886.63
2019-02-14T09:59:40.823Z,101891.08
2019-02-14T10:02:27.291Z,101887.63
2019-02-14T10:04:56.508Z,101892.56
2019-02-14T10:07:55.545Z,101889.85
2019-02-14T10:13:36.222Z,101891.77
2019-02-14T10:16:22.548Z,101872.25
2019-02-14T10:19:21.734Z,101872.25
2019-02-14T10:21:38.337Z,101871.14
2019-02-14T10:24:25.036Z,101871.14
2019-02-14T10:26:52.992Z,101838.24
2019-02-14T10:29:39.376Z,101838.24
2019-02-14T10:32:09.961Z,101825.28
2019-02-14T10:37:10.706Z,101818.49
2019-02-14T10:39:39.094Z,101810.39
2019-02-14T10:42:25.505Z,101808.66
2019-02-14T10:44:53.149Z,101810.50
2019-02-14T10:47:39.536Z,101804.31
2019-02-14T10:53:05.874Z,101801.84
2019-02-14T10:55:52.348Z,101810.04
2019-02-14T10:58:20.279Z,101810.04
2019-02-14T11:00:59.584Z,101810.58
2019-02-14T11:03:36.601Z,101813.37
2019-02-14T11:06:23.073Z,101817.16
2019-02-14T11:08:50.832Z,101822.98
2019-02-14T11:11:18.752Z,101823.27
2019-02-14T11:14:05.210Z,101822.34
2019-02-14T11:16:51.626Z,101822.34
2019-02-14T11:19:19.308Z,101827.50
2019-02-14T11:22:05.981Z,101825.69
2019-02-14T11:24:33.954Z,101823.04
2019-02-14T11:27:01.889Z,101817.05
2019-02-14T11:29:29.536Z,101825.49
2019-02-14T11:31:59.128Z,101818.41
2019-02-14T11:34:41.090Z,101814.23
2019-02-14T11:36:56.319Z,101809.64
2019-02-14T11:39:26.115Z,101811.56
2019-02-14T11:42:12.546Z,101814.30
2019-02-14T11:44:40.154Z,101813.73
2019-02-14T11:47:08.007Z,101804.91
2019-02-14T11:49:54.471Z,101809.23
2019-02-14T11:52:41.294Z,101796.11
2019-02-14T11:55:27.734Z,101799.13
2019-02-14T11:57:55.400Z,101799.13
2019-02-14T12:03:12.791Z,101798.31
2019-02-14T12:08:57.700Z,101802.38
2019-02-14T12:11:33.036Z,101808.61
2019-02-14T12:14:07.026Z,101799.47
2019-02-14T12:16:34.709Z,101803.50
2019-02-14T12:19:02.355Z,101794.80
2019-02-14T12:21:48.782Z,101795.42
2019-02-14T12:24:35.248Z,101795.33
2019-02-14T12:27:21.714Z,101798.50
2019-02-14T12:32:37.540Z,101800.95
2019-02-14T12:35:05.159Z,101801.06
2019-02-14T12:40:39.066Z,101797.72
2019-02-14T12:43:09.032Z,101790.11
2019-02-14T12:48:24.597Z,101788.37
2019-02-14T12:51:11.017Z,101789.80
2019-02-14T12:53:38.637Z,101790.24
2019-02-14T12:56:06.649Z,101790.24
2019-02-14T12:58:53.075Z,101771.47
2019-02-14T13:01:41.201Z,101773.66
2019-02-14T13:04:09.127Z,101773.66
2019-02-14T13:06:36.737Z,101773.80
2019-02-14T13:09:05.511Z,101774.16
2019-02-14T13:11:33.339Z,101768.39
2019-02-14T13:16:48.578Z,101765.06
2019-02-14T13:22:13.193Z,101770.36
2019-02-14T13:27:47.095Z,101771.70
2019-02-14T13:30:14.695Z,101766.64
2019-02-14T13:32:42.597Z,101764.20
2019-02-14T13:35:10.148Z,101764.28
2019-02-14T13:37:39.886Z,101766.70
2019-02-14T13:40:25.861Z,101767.56
2019-02-14T13:42:53.467Z,101770.55
2019-02-14T13:45:39.899Z,101761.09
2019-02-14T13:48:09.212Z,101747.59
2019-02-14T13:50:37.179Z,101752.17
2019-02-14T13:53:04.825Z,101752.17
2019-02-14T13:55:32.508Z,101754.11
2019-02-14T13:58:00.381Z,101752.55
2019-02-14T14:00:27.991Z,101751.95
2019-02-14T14:02:55.639Z,101751.05
2019-02-14T14:05:42.064Z,101746.76
2019-02-14T14:08:09.641Z,101737.52
2019-02-14T14:10:56.198Z,101734.05
2019-02-14T14:13:27.621Z,101734.05
2019-02-14T14:16:27.040Z,101729.11
2019-02-14T14:18:43.712Z,101722.39
2019-02-14T14:21:30.201Z,101724.10
2019-02-14T14:23:57.888Z,101725.07
2019-02-14T14:26:44.407Z,101723.33
2019-02-14T14:29:12.035Z,101728.03
2019-02-14T14:31:42.009Z,101726.35
2019-02-14T14:34:09.623Z,101726.36
2019-02-14T14:39:11.778Z,101711.08
2019-02-14T14:41:39.376Z,101710.71
2019-02-14T14:44:25.823Z,101710.71
2019-02-14T14:47:12.206Z,101708.29
2019-02-14T14:52:13.426Z,101702.72
2019-02-14T14:57:14.349Z,101705.27
2019-02-14T15:00:01.215Z,101705.25
2019-02-14T15:05:15.369Z,101692.22
2019-02-14T15:07:43.194Z,101692.68
2019-02-14T15:10:12.342Z,101692.68
2019-02-14T15:12:40.137Z,101689.20
2019-02-14T15:15:21.754Z,101685.67
2019-02-14T15:17:39.494Z,101689.48
2019-02-14T15:20:25.920Z,101681.70
2019-02-14T15:22:53.493Z,101681.70
2019-02-14T15:25:40.108Z,101683.14
2019-02-14T15:28:07.649Z,101683.14
2019-02-14T15:30:37.957Z,101686.39
2019-02-14T15:33:05.599Z,101694.08
2019-02-14T15:35:33.147Z,101697.66
2019-02-14T15:40:35.121Z,101695.14
2019-02-14T15:43:02.699Z,101691.48
2019-02-14T15:46:01.890Z,101686.44
2019-02-14T15:51:25.148Z,101703.28
2019-02-14T15:53:52.775Z,101706.53
2019-02-14T15:56:39.219Z,101707.61
2019-02-14T15:59:06.793Z,101707.61
2019-02-14T16:01:34.421Z,101711.37
2019-02-14T16:04:20.753Z,101711.37
2019-02-14T16:06:50.002Z,101721.45
2019-02-14T16:09:17.535Z,101724.63
2019-02-14T16:12:04.988Z,101724.44
2019-02-14T16:14:34.190Z,101718.73
2019-02-14T16:20:05.324Z,101721.45
2019-02-14T16:22:04.399Z,101720.37
2019-02-14T16:27:32.014Z,101711.95
2019-02-14T16:29:58.797Z,101712.42
2019-02-14T16:40:55.362Z,101720.64
2019-02-14T16:46:15.388Z,101713.63
2019-02-14T16:51:48.143Z,101718.63
2019-02-14T16:54:15.714Z,101718.63
2019-02-14T16:57:02.525Z,101724.90
2019-02-14T16:59:30.178Z,101724.78
2019-02-14T17:01:58.056Z,101721.84
2019-02-14T17:04:25.659Z,101722.81
2019-02-14T17:12:01.138Z,101724.03
2019-02-14T17:14:28.717Z,101725.09
2019-02-14T17:17:28.005Z,101725.09
2019-02-14T17:19:44.321Z,101735.76
2019-02-14T17:22:12.123Z,101735.76
2019-02-14T17:24:39.723Z,101737.56
2019-02-14T17:30:12.802Z,101735.00
2019-02-14T17:35:28.530Z,101745.13
2019-02-14T17:37:56.407Z,101745.13
2019-02-14T17:43:16.976Z,101753.90
2019-02-14T17:45:46.930Z,101757.36
2019-02-14T17:48:33.236Z,101757.36
2019-02-14T17:51:02.894Z,101756.84
2019-02-14T17:53:49.163Z,101750.95
2019-02-14T17:56:35.498Z,101756.09
2019-02-14T17:59:22.240Z,101756.09
2019-02-14T18:01:49.885Z,101754.02
2019-02-14T18:09:40.757Z,101743.91
2019-02-14T18:12:08.247Z,101754.06
2019-02-14T18:14:37.803Z,101754.06
2019-02-14T18:17:05.318Z,101752.53
2019-02-14T18:19:33.259Z,101749.59
2019-02-14T18:22:01.199Z,101756.31
2019-02-14T18:24:31.297Z,101751.00
2019-02-14T18:27:02.159Z,101751.00
2019-02-14T18:29:30.136Z,101753.56
2019-02-14T18:32:02.119Z,101756.71
2019-02-14T18:34:27.275Z,101756.71
2019-02-14T18:37:03.845Z,101747.98
2019-02-14T18:39:31.725Z,101747.98
2019-02-14T18:42:02.268Z,101746.95
2019-02-14T18:44:32.849Z,101739.43
2019-02-14T18:47:00.650Z,101734.55
2019-02-14T18:49:28.227Z,101734.55
2019-02-14T18:52:01.027Z,101730.41
2019-02-14T18:54:29.680Z,101737.44
2019-02-14T18:56:57.168Z,101739.75
2019-02-14T18:59:42.053Z,101748.46
2019-02-14T19:02:09.860Z,101748.46
2019-02-14T19:04:37.392Z,101745.74
2019-02-14T19:07:07.775Z,101745.74
2019-02-14T19:09:35.522Z,101744.73
2019-02-14T19:12:03.704Z,101748.51
2019-02-14T19:14:34.242Z,101747.59
2019-02-14T19:17:02.762Z,101747.59
2019-02-14T19:19:33.806Z,101743.58
2019-02-14T19:22:01.335Z,101743.58
2019-02-14T19:24:38.106Z,101743.73
2019-02-14T19:27:10.152Z,101743.73
2019-02-14T19:29:36.361Z,101733.64
2019-02-14T19:32:07.337Z,101730.32
2019-02-14T19:34:39.778Z,101730.32
2019-02-14T19:37:10.878Z,101730.98
2019-02-14T19:39:38.737Z,101731.52
2019-02-14T19:42:06.254Z,101732.49
2019-02-14T19:44:33.808Z,101732.49
2019-02-14T19:47:20.148Z,101736.73
2019-02-14T19:49:50.710Z,101733.52
2019-02-14T19:52:18.290Z,101720.48
2019-02-14T19:55:04.659Z,101727.29
2019-02-14T19:57:51.358Z,101727.29
2019-02-14T20:03:26.796Z,101723.34
2019-02-14T20:06:15.220Z,101722.08
2019-02-14T20:08:51.428Z,101716.36
2019-02-14T20:11:37.777Z,101716.36
2019-02-14T20:16:40.673Z,101717.45
2019-02-14T20:22:14.957Z,101714.52
2019-02-14T20:24:42.474Z,101713.70
2019-02-14T20:27:28.810Z,101716.89
2019-02-14T20:30:07.999Z,101718.82
2019-02-14T20:32:44.793Z,101713.67
2019-02-14T20:35:31.201Z,101714.47
2019-02-14T20:38:33.614Z,101714.17
2019-02-14T20:40:49.351Z,101720.06
2019-02-14T20:43:35.769Z,101725.03
2019-02-14T20:49:10.129Z,101719.31
2019-02-14T20:51:38.759Z,101721.52
2019-02-14T20:57:02.356Z,101718.31
2019-02-14T20:59:33.312Z,101722.76
2019-02-14T21:02:00.894Z,101718.05
2019-02-14T21:04:31.858Z,101718.05
2019-02-14T21:06:59.692Z,101713.05
2019-02-14T21:09:29.042Z,101708.57
2019-02-14T21:11:56.628Z,101708.57
2019-02-14T21:14:24.539Z,101709.06
2019-02-14T21:16:52.047Z,101703.89
2019-02-14T21:19:31.256Z,101703.89
2019-02-14T21:22:17.872Z,101695.98
2019-02-14T21:24:36.888Z,101695.98
2019-02-14T21:27:04.497Z,101696.14
2019-02-14T21:29:33.908Z,101709.38
2019-02-14T21:32:03.159Z,101704.60
2019-02-14T21:34:31.105Z,101706.91
2019-02-14T21:36:59.030Z,101706.91
2019-02-14T21:39:26.620Z,101706.11
2019-02-14T21:42:17.457Z,101706.11
2019-02-14T21:44:23.689Z,101706.97
2019-02-14T21:46:51.336Z,101706.97
2019-02-14T21:49:22.818Z,101707.42
2019-02-14T21:51:50.037Z,101709.19
2019-02-14T21:54:20.465Z,101700.96
2019-02-14T21:56:50.045Z,101700.96
2019-02-14T21:59:17.642Z,101700.96
2019-02-14T22:01:50.096Z,101703.52
2019-02-14T22:04:17.951Z,101702.16
2019-02-14T22:06:45.577Z,101702.16
2019-02-14T22:09:13.270Z,101701.26
2019-02-14T22:11:41.167Z,101700.34
2019-02-14T22:14:08.717Z,101710.05
2019-02-14T22:16:36.278Z,101705.80
2019-02-14T22:19:04.224Z,101708.13
2019-02-14T22:21:31.895Z,101701.19
2019-02-14T22:23:59.445Z,101701.19
2019-02-14T22:26:27.319Z,101706.52
2019-02-14T22:28:55.181Z,101700.75
2019-02-14T22:34:09.472Z,101694.94
2019-02-14T22:36:40.160Z,101698.33
2019-02-14T22:39:26.587Z,101705.09
2019-02-14T22:41:54.262Z,101698.44
2019-02-14T22:44:22.163Z,101698.44
2019-02-14T22:46:49.939Z,101704.72
2019-02-14T22:49:17.541Z,101704.72
2019-02-14T22:51:45.081Z,101705.66
2019-02-14T22:54:31.449Z,101708.02
2019-02-14T22:56:59.029Z,101708.02
2019-02-14T22:59:45.306Z,101700.66
2019-02-14T23:02:12.963Z,101700.66
2019-02-14T23:04:40.846Z,101703.22
2019-02-14T23:07:08.401Z,101705.34
2019-02-14T23:09:38.770Z,101704.83
2019-02-14T23:12:06.542Z,101709.08
2019-02-14T23:17:45.103Z,101704.72
2019-02-14T23:20:31.495Z,101706.97
2019-02-14T23:23:18.089Z,101706.97
2019-02-14T23:25:46.154Z,101717.73
2019-02-14T23:28:13.821Z,101717.73
2019-02-14T23:31:00.193Z,101713.42
2019-02-14T23:33:27.791Z,101713.42
2019-02-14T23:36:14.157Z,101713.30
2019-02-14T23:41:36.620Z,101717.83
2019-02-14T23:47:28.173Z,101721.94
2019-02-14T23:49:57.390Z,101720.23
2019-02-14T23:52:43.752Z,101720.23
2019-02-14T23:55:30.139Z,101718.06
2019-02-14T23:58:16.873Z,101709.61
